sensor_id;sensor_type;location;lat;lon;timestamp;P1;durP1;ratioP1;P2;durP2;ratioP2
40991;SDS011;29633;49.168;9.848;2022-08-20T00:00:47;11.35;;;10.43;;
40991;SDS011;29633;49.168;9.848;2022-08-20T00:06:01;12.70;;;11.48;;
40991;SDS011;29633;49.168;9.848;2022-08-20T00:08:29;12.98;;;11.80;;
40991;SDS011;29633;49.168;9.848;2022-08-20T00:10:56;12.30;;;11.10;;
40991;SDS011;29633;49.168;9.848;2022-08-20T00:13:25;12.02;;;10.75;;
40991;SDS011;29633;49.168;9.848;2022-08-20T00:15:59;11.20;;;10.20;;
40991;SDS011;29633;49.168;9.848;2022-08-20T00:18:26;12.10;;;10.90;;
40991;SDS011;29633;49.168;9.848;2022-08-20T00:20:53;11.68;;;10.68;;
40991;SDS011;29633;49.168;9.848;2022-08-20T00:23:20;11.45;;;10.20;;
40991;SDS011;29633;49.168;9.848;2022-08-20T00:25:48;11.02;;;9.95;;
40991;SDS011;29633;49.168;9.848;2022-08-20T00:28:15;12.23;;;11.13;;
40991;SDS011;29633;49.168;9.848;2022-08-20T00:30:42;13.18;;;11.88;;
40991;SDS011;29633;49.168;9.848;2022-08-20T00:33:11;12.95;;;11.68;;
40991;SDS011;29633;49.168;9.848;2022-08-20T00:35:43;12.50;;;11.38;;
40991;SDS011;29633;49.168;9.848;2022-08-20T00:38:12;14.60;;;13.18;;
40991;SDS011;29633;49.168;9.848;2022-08-20T00:40:49;12.75;;;11.65;;
40991;SDS011;29633;49.168;9.848;2022-08-20T00:46:18;13.00;;;11.77;;
40991;SDS011;29633;49.168;9.848;2022-08-20T00:48:47;12.63;;;11.57;;
40991;SDS011;29633;49.168;9.848;2022-08-20T00:51:35;12.10;;;11.02;;
40991;SDS011;29633;49.168;9.848;2022-08-20T00:57:00;12.60;;;11.27;;
40991;SDS011;29633;49.168;9.848;2022-08-20T00:59:32;12.55;;;11.45;;
40991;SDS011;29633;49.168;9.848;2022-08-20T01:02:01;12.50;;;11.32;;
40991;SDS011;29633;49.168;9.848;2022-08-20T01:04:32;12.18;;;11.07;;
40991;SDS011;29633;49.168;9.848;2022-08-20T01:07:00;11.13;;;10.15;;
40991;SDS011;29633;49.168;9.848;2022-08-20T01:09:29;12.30;;;11.20;;
40991;SDS011;29633;49.168;9.848;2022-08-20T01:11:55;11.32;;;10.48;;
40991;SDS011;29633;49.168;9.848;2022-08-20T01:14:21;11.98;;;10.88;;
40991;SDS011;29633;49.168;9.848;2022-08-20T01:16:48;11.23;;;9.77;;
40991;SDS011;29633;49.168;9.848;2022-08-20T01:19:23;10.52;;;9.60;;
40991;SDS011;29633;49.168;9.848;2022-08-20T01:22:02;9.70;;;8.98;;
40991;SDS011;29633;49.168;9.848;2022-08-20T01:24:49;10.35;;;9.45;;
40991;SDS011;29633;49.168;9.848;2022-08-20T01:27:21;9.40;;;8.68;;
40991;SDS011;29633;49.168;9.848;2022-08-20T01:29:48;9.73;;;8.82;;
40991;SDS011;29633;49.168;9.848;2022-08-20T01:32:15;9.05;;;8.35;;
40991;SDS011;29633;49.168;9.848;2022-08-20T01:34:41;9.30;;;8.40;;
40991;SDS011;29633;49.168;9.848;2022-08-20T01:37:07;9.60;;;8.80;;
40991;SDS011;29633;49.168;9.848;2022-08-20T01:39:33;9.93;;;8.93;;
40991;SDS011;29633;49.168;9.848;2022-08-20T01:44:51;8.23;;;7.53;;
40991;SDS011;29633;49.168;9.848;2022-08-20T01:49:53;9.07;;;8.27;;
40991;SDS011;29633;49.168;9.848;2022-08-20T01:52:46;8.45;;;7.65;;
40991;SDS011;29633;49.168;9.848;2022-08-20T01:55:40;8.80;;;8.10;;
40991;SDS011;29633;49.168;9.848;2022-08-20T01:58:06;9.68;;;8.77;;
40991;SDS011;29633;49.168;9.848;2022-08-20T02:00:32;9.15;;;8.35;;
40991;SDS011;29633;49.168;9.848;2022-08-20T02:02:59;9.57;;;8.68;;
40991;SDS011;29633;49.168;9.848;2022-08-20T02:05:27;8.60;;;7.88;;
40991;SDS011;29633;49.168;9.848;2022-08-20T02:07:55;9.65;;;8.73;;
40991;SDS011;29633;49.168;9.848;2022-08-20T02:10:20;9.00;;;8.27;;
40991;SDS011;29633;49.168;9.848;2022-08-20T02:12:47;9.88;;;8.80;;
40991;SDS011;29633;49.168;9.848;2022-08-20T02:15:14;9.38;;;8.43;;
40991;SDS011;29633;49.168;9.848;2022-08-20T02:17:40;9.07;;;8.30;;
40991;SDS011;29633;49.168;9.848;2022-08-20T02:20:16;8.40;;;7.68;;
40991;SDS011;29633;49.168;9.848;2022-08-20T02:22:55;8.38;;;7.63;;
40991;SDS011;29633;49.168;9.848;2022-08-20T02:25:24;8.02;;;7.30;;
40991;SDS011;29633;49.168;9.848;2022-08-20T02:27:54;8.02;;;7.40;;
40991;SDS011;29633;49.168;9.848;2022-08-20T02:30:23;8.25;;;7.10;;
40991;SDS011;29633;49.168;9.848;2022-08-20T02:32:57;7.95;;;7.28;;
40991;SDS011;29633;49.168;9.848;2022-08-20T02:35:27;7.53;;;6.82;;
40991;SDS011;29633;49.168;9.848;2022-08-20T02:37:53;7.57;;;7.00;;
40991;SDS011;29633;49.168;9.848;2022-08-20T02:40:20;7.60;;;7.00;;
40991;SDS011;29633;49.168;9.848;2022-08-20T02:42:52;8.65;;;7.75;;
40991;SDS011;29633;49.168;9.848;2022-08-20T02:45:19;7.63;;;7.03;;
40991;SDS011;29633;49.168;9.848;2022-08-20T02:47:46;7.60;;;6.90;;
40991;SDS011;29633;49.168;9.848;2022-08-20T02:50:14;7.53;;;6.95;;
40991;SDS011;29633;49.168;9.848;2022-08-20T02:52:43;7.45;;;6.82;;
40991;SDS011;29633;49.168;9.848;2022-08-20T02:55:10;6.88;;;6.28;;
40991;SDS011;29633;49.168;9.848;2022-08-20T02:57:37;8.18;;;7.03;;
40991;SDS011;29633;49.168;9.848;2022-08-20T03:00:24;6.88;;;6.38;;
40991;SDS011;29633;49.168;9.848;2022-08-20T03:02:49;6.97;;;6.38;;
40991;SDS011;29633;49.168;9.848;2022-08-20T03:05:15;7.10;;;6.47;;
40991;SDS011;29633;49.168;9.848;2022-08-20T03:07:48;6.50;;;5.95;;
40991;SDS011;29633;49.168;9.848;2022-08-20T03:10:25;6.63;;;6.00;;
40991;SDS011;29633;49.168;9.848;2022-08-20T03:12:54;7.07;;;6.38;;
40991;SDS011;29633;49.168;9.848;2022-08-20T03:15:20;6.55;;;6.00;;
40991;SDS011;29633;49.168;9.848;2022-08-20T03:17:46;6.50;;;5.90;;
40991;SDS011;29633;49.168;9.848;2022-08-20T03:20:12;6.68;;;6.03;;
40991;SDS011;29633;49.168;9.848;2022-08-20T03:22:39;6.53;;;6.03;;
40991;SDS011;29633;49.168;9.848;2022-08-20T03:25:05;6.10;;;5.60;;
40991;SDS011;29633;49.168;9.848;2022-08-20T03:27:32;6.22;;;5.63;;
40991;SDS011;29633;49.168;9.848;2022-08-20T03:29:58;7.13;;;5.85;;
40991;SDS011;29633;49.168;9.848;2022-08-20T03:32:23;6.25;;;5.75;;
40991;SDS011;29633;49.168;9.848;2022-08-20T03:34:49;5.78;;;5.38;;
40991;SDS011;29633;49.168;9.848;2022-08-20T03:37:15;6.68;;;6.07;;
40991;SDS011;29633;49.168;9.848;2022-08-20T03:39:41;6.72;;;6.00;;
40991;SDS011;29633;49.168;9.848;2022-08-20T03:42:07;6.20;;;5.65;;
40991;SDS011;29633;49.168;9.848;2022-08-20T03:44:33;6.45;;;5.95;;
40991;SDS011;29633;49.168;9.848;2022-08-20T03:47:01;6.32;;;5.82;;
40991;SDS011;29633;49.168;9.848;2022-08-20T03:49:33;6.35;;;5.82;;
40991;SDS011;29633;49.168;9.848;2022-08-20T03:52:00;6.32;;;5.82;;
40991;SDS011;29633;49.168;9.848;2022-08-20T03:54:28;6.38;;;5.78;;
40991;SDS011;29633;49.168;9.848;2022-08-20T03:56:54;5.93;;;5.43;;
40991;SDS011;29633;49.168;9.848;2022-08-20T03:59:20;6.45;;;5.28;;
40991;SDS011;29633;49.168;9.848;2022-08-20T04:01:45;6.13;;;5.43;;
40991;SDS011;29633;49.168;9.848;2022-08-20T04:04:11;5.55;;;5.15;;
40991;SDS011;29633;49.168;9.848;2022-08-20T04:06:38;5.47;;;4.97;;
40991;SDS011;29633;49.168;9.848;2022-08-20T04:09:04;5.53;;;5.03;;
40991;SDS011;29633;49.168;9.848;2022-08-20T04:11:30;5.22;;;4.93;;
40991;SDS011;29633;49.168;9.848;2022-08-20T04:13:57;5.22;;;4.72;;
40991;SDS011;29633;49.168;9.848;2022-08-20T04:16:23;5.18;;;4.72;;
40991;SDS011;29633;49.168;9.848;2022-08-20T04:18:49;5.32;;;4.93;;
40991;SDS011;29633;49.168;9.848;2022-08-20T04:21:15;5.22;;;4.72;;
40991;SDS011;29633;49.168;9.848;2022-08-20T04:23:40;4.13;;;3.83;;
40991;SDS011;29633;49.168;9.848;2022-08-20T04:26:06;4.00;;;3.70;;
40991;SDS011;29633;49.168;9.848;2022-08-20T04:28:33;3.60;;;3.30;;
40991;SDS011;29633;49.168;9.848;2022-08-20T04:30:59;3.38;;;3.10;;
40991;SDS011;29633;49.168;9.848;2022-08-20T04:33:26;3.28;;;3.03;;
40991;SDS011;29633;49.168;9.848;2022-08-20T04:35:56;3.30;;;3.00;;
40991;SDS011;29633;49.168;9.848;2022-08-20T04:38:27;3.03;;;2.83;;
40991;SDS011;29633;49.168;9.848;2022-08-20T04:40:54;3.13;;;2.83;;
40991;SDS011;29633;49.168;9.848;2022-08-20T04:43:43;2.63;;;2.42;;
40991;SDS011;29633;49.168;9.848;2022-08-20T04:46:07;3.20;;;2.90;;
40991;SDS011;29633;49.168;9.848;2022-08-20T04:48:34;3.38;;;3.08;;
40991;SDS011;29633;49.168;9.848;2022-08-20T04:51:03;2.95;;;2.75;;
40991;SDS011;29633;49.168;9.848;2022-08-20T04:53:31;2.90;;;2.65;;
40991;SDS011;29633;49.168;9.848;2022-08-20T04:55:58;2.70;;;2.50;;
40991;SDS011;29633;49.168;9.848;2022-08-20T04:58:27;3.63;;;2.35;;
40991;SDS011;29633;49.168;9.848;2022-08-20T05:01:02;2.88;;;2.22;;
40991;SDS011;29633;49.168;9.848;2022-08-20T05:03:31;2.55;;;2.35;;
40991;SDS011;29633;49.168;9.848;2022-08-20T05:05:58;2.35;;;2.15;;
40991;SDS011;29633;49.168;9.848;2022-08-20T05:08:25;2.25;;;2.05;;
40991;SDS011;29633;49.168;9.848;2022-08-20T05:10:53;3.25;;;2.03;;
40991;SDS011;29633;49.168;9.848;2022-08-20T05:13:21;2.17;;;2.08;;
40991;SDS011;29633;49.168;9.848;2022-08-20T05:15:49;2.17;;;1.98;;
40991;SDS011;29633;49.168;9.848;2022-08-20T05:18:16;2.38;;;2.17;;
40991;SDS011;29633;49.168;9.848;2022-08-20T05:20:45;2.67;;;2.47;;
40991;SDS011;29633;49.168;9.848;2022-08-20T05:23:12;2.28;;;2.10;;
40991;SDS011;29633;49.168;9.848;2022-08-20T05:25:41;2.25;;;2.03;;
40991;SDS011;29633;49.168;9.848;2022-08-20T05:28:15;2.40;;;1.63;;
40991;SDS011;29633;49.168;9.848;2022-08-20T05:30:47;2.33;;;2.13;;
40991;SDS011;29633;49.168;9.848;2022-08-20T05:33:16;2.22;;;2.03;;
40991;SDS011;29633;49.168;9.848;2022-08-20T05:35:47;2.17;;;1.98;;
40991;SDS011;29633;49.168;9.848;2022-08-20T05:38:17;2.38;;;1.88;;
40991;SDS011;29633;49.168;9.848;2022-08-20T05:40:46;1.70;;;1.60;;
40991;SDS011;29633;49.168;9.848;2022-08-20T05:43:12;1.90;;;1.67;;
40991;SDS011;29633;49.168;9.848;2022-08-20T05:45:39;1.67;;;1.58;;
40991;SDS011;29633;49.168;9.848;2022-08-20T05:48:08;2.00;;;1.80;;
40991;SDS011;29633;49.168;9.848;2022-08-20T05:50:38;1.65;;;1.55;;
40991;SDS011;29633;49.168;9.848;2022-08-20T05:53:06;1.70;;;1.60;;
40991;SDS011;29633;49.168;9.848;2022-08-20T05:55:33;1.52;;;1.40;;
40991;SDS011;29633;49.168;9.848;2022-08-20T05:58:02;1.70;;;1.58;;
40991;SDS011;29633;49.168;9.848;2022-08-20T06:00:32;1.60;;;1.48;;
40991;SDS011;29633;49.168;9.848;2022-08-20T06:03:00;1.40;;;1.30;;
40991;SDS011;29633;49.168;9.848;2022-08-20T06:05:44;1.38;;;1.27;;
40991;SDS011;29633;49.168;9.848;2022-08-20T06:08:10;2.50;;;1.27;;
40991;SDS011;29633;49.168;9.848;2022-08-20T06:10:37;1.98;;;1.75;;
40991;SDS011;29633;49.168;9.848;2022-08-20T06:13:04;2.00;;;1.45;;
40991;SDS011;29633;49.168;9.848;2022-08-20T06:15:31;1.70;;;1.50;;
40991;SDS011;29633;49.168;9.848;2022-08-20T06:17:57;1.95;;;1.63;;
40991;SDS011;29633;49.168;9.848;2022-08-20T06:20:23;1.50;;;1.40;;
40991;SDS011;29633;49.168;9.848;2022-08-20T06:22:50;1.80;;;1.60;;
40991;SDS011;29633;49.168;9.848;2022-08-20T06:25:16;3.33;;;2.33;;
40991;SDS011;29633;49.168;9.848;2022-08-20T06:27:42;4.32;;;3.13;;
40991;SDS011;29633;49.168;9.848;2022-08-20T06:30:09;3.22;;;2.90;;
40991;SDS011;29633;49.168;9.848;2022-08-20T06:32:37;3.22;;;2.75;;
40991;SDS011;29633;49.168;9.848;2022-08-20T06:35:04;2.47;;;2.28;;
40991;SDS011;29633;49.168;9.848;2022-08-20T06:37:34;2.17;;;2.00;;
40991;SDS011;29633;49.168;9.848;2022-08-20T06:40:13;1.92;;;1.70;;
40991;SDS011;29633;49.168;9.848;2022-08-20T06:42:42;1.50;;;1.30;;
40991;SDS011;29633;49.168;9.848;2022-08-20T06:45:09;1.60;;;1.30;;
40991;SDS011;29633;49.168;9.848;2022-08-20T06:47:39;2.28;;;1.40;;
40991;SDS011;29633;49.168;9.848;2022-08-20T06:50:11;1.40;;;1.25;;
40991;SDS011;29633;49.168;9.848;2022-08-20T06:52:42;1.38;;;1.25;;
40991;SDS011;29633;49.168;9.848;2022-08-20T06:55:10;5.20;;;1.40;;
40991;SDS011;29633;49.168;9.848;2022-08-20T06:57:37;2.28;;;1.35;;
40991;SDS011;29633;49.168;9.848;2022-08-20T07:00:04;1.50;;;1.20;;
40991;SDS011;29633;49.168;9.848;2022-08-20T07:02:38;1.60;;;1.15;;
40991;SDS011;29633;49.168;9.848;2022-08-20T07:05:05;2.10;;;1.35;;
40991;SDS011;29633;49.168;9.848;2022-08-20T07:07:31;1.52;;;1.42;;
40991;SDS011;29633;49.168;9.848;2022-08-20T07:10:06;1.52;;;1.42;;
40991;SDS011;29633;49.168;9.848;2022-08-20T07:12:34;1.40;;;1.30;;
40991;SDS011;29633;49.168;9.848;2022-08-20T07:15:00;1.65;;;1.30;;
40991;SDS011;29633;49.168;9.848;2022-08-20T07:17:31;1.65;;;1.35;;
40991;SDS011;29633;49.168;9.848;2022-08-20T07:19:57;1.75;;;1.40;;
40991;SDS011;29633;49.168;9.848;2022-08-20T07:22:26;1.90;;;1.48;;
40991;SDS011;29633;49.168;9.848;2022-08-20T07:24:52;1.67;;;1.52;;
40991;SDS011;29633;49.168;9.848;2022-08-20T07:27:19;1.90;;;1.42;;
40991;SDS011;29633;49.168;9.848;2022-08-20T07:29:47;1.70;;;1.33;;
40991;SDS011;29633;49.168;9.848;2022-08-20T07:32:33;2.90;;;1.30;;
40991;SDS011;29633;49.168;9.848;2022-08-20T07:35:02;1.67;;;1.33;;
40991;SDS011;29633;49.168;9.848;2022-08-20T07:37:31;1.27;;;1.17;;
40991;SDS011;29633;49.168;9.848;2022-08-20T07:40:34;1.38;;;1.23;;
40991;SDS011;29633;49.168;9.848;2022-08-20T07:42:59;1.35;;;1.25;;
40991;SDS011;29633;49.168;9.848;2022-08-20T07:45:27;1.15;;;1.08;;
40991;SDS011;29633;49.168;9.848;2022-08-20T07:47:55;1.15;;;1.05;;
40991;SDS011;29633;49.168;9.848;2022-08-20T07:50:32;2.83;;;1.33;;
40991;SDS011;29633;49.168;9.848;2022-08-20T07:52:57;1.30;;;1.20;;
40991;SDS011;29633;49.168;9.848;2022-08-20T07:55:25;1.23;;;1.08;;
40991;SDS011;29633;49.168;9.848;2022-08-20T07:57:51;1.73;;;1.40;;
40991;SDS011;29633;49.168;9.848;2022-08-20T08:00:19;1.42;;;1.17;;
40991;SDS011;29633;49.168;9.848;2022-08-20T08:02:46;1.88;;;1.13;;
40991;SDS011;29633;49.168;9.848;2022-08-20T08:05:12;1.17;;;1.08;;
40991;SDS011;29633;49.168;9.848;2022-08-20T08:07:40;1.58;;;1.30;;
40991;SDS011;29633;49.168;9.848;2022-08-20T08:10:07;10.65;;;1.40;;
40991;SDS011;29633;49.168;9.848;2022-08-20T08:12:37;1.40;;;1.25;;
40991;SDS011;29633;49.168;9.848;2022-08-20T08:15:09;1.67;;;1.30;;
40991;SDS011;29633;49.168;9.848;2022-08-20T08:17:39;2.25;;;1.10;;
40991;SDS011;29633;49.168;9.848;2022-08-20T08:20:07;1.17;;;1.08;;
40991;SDS011;29633;49.168;9.848;2022-08-20T08:22:36;1.35;;;1.23;;
40991;SDS011;29633;49.168;9.848;2022-08-20T08:25:06;1.50;;;1.40;;
40991;SDS011;29633;49.168;9.848;2022-08-20T08:27:36;1.48;;;1.20;;
40991;SDS011;29633;49.168;9.848;2022-08-20T08:30:03;1.17;;;1.08;;
40991;SDS011;29633;49.168;9.848;2022-08-20T08:32:30;1.48;;;1.30;;
40991;SDS011;29633;49.168;9.848;2022-08-20T08:34:56;2.50;;;1.48;;
40991;SDS011;29633;49.168;9.848;2022-08-20T08:37:26;2.78;;;1.33;;
40991;SDS011;29633;49.168;9.848;2022-08-20T08:39:52;1.80;;;1.52;;
40991;SDS011;29633;49.168;9.848;2022-08-20T08:42:33;1.48;;;1.38;;
40991;SDS011;29633;49.168;9.848;2022-08-20T08:45:08;1.77;;;1.60;;
40991;SDS011;29633;49.168;9.848;2022-08-20T08:47:35;1.50;;;1.40;;
40991;SDS011;29633;49.168;9.848;2022-08-20T08:50:03;1.60;;;1.50;;
40991;SDS011;29633;49.168;9.848;2022-08-20T08:52:46;1.70;;;1.50;;
40991;SDS011;29633;49.168;9.848;2022-08-20T08:57:46;1.42;;;1.13;;
40991;SDS011;29633;49.168;9.848;2022-08-20T09:00:15;1.70;;;1.60;;
40991;SDS011;29633;49.168;9.848;2022-08-20T09:03:03;1.85;;;1.50;;
40991;SDS011;29633;49.168;9.848;2022-08-20T09:08:24;2.53;;;1.42;;
40991;SDS011;29633;49.168;9.848;2022-08-20T09:11:03;1.60;;;1.40;;
40991;SDS011;29633;49.168;9.848;2022-08-20T09:13:31;1.55;;;1.45;;
40991;SDS011;29633;49.168;9.848;2022-08-20T09:15:57;2.03;;;1.60;;
40991;SDS011;29633;49.168;9.848;2022-08-20T09:18:23;1.85;;;1.42;;
40991;SDS011;29633;49.168;9.848;2022-08-20T09:20:49;3.05;;;1.88;;
40991;SDS011;29633;49.168;9.848;2022-08-20T09:23:15;2.15;;;1.95;;
40991;SDS011;29633;49.168;9.848;2022-08-20T09:25:40;1.80;;;1.70;;
40991;SDS011;29633;49.168;9.848;2022-08-20T09:28:07;1.90;;;1.80;;
40991;SDS011;29633;49.168;9.848;2022-08-20T09:30:33;1.98;;;1.77;;
40991;SDS011;29633;49.168;9.848;2022-08-20T09:32:58;2.28;;;1.75;;
40991;SDS011;29633;49.168;9.848;2022-08-20T09:35:25;2.33;;;2.13;;
40991;SDS011;29633;49.168;9.848;2022-08-20T09:37:52;2.50;;;2.30;;
40991;SDS011;29633;49.168;9.848;2022-08-20T09:40:17;4.20;;;3.80;;
40991;SDS011;29633;49.168;9.848;2022-08-20T09:42:43;6.03;;;3.03;;
40991;SDS011;29633;49.168;9.848;2022-08-20T09:45:09;2.58;;;2.38;;
40991;SDS011;29633;49.168;9.848;2022-08-20T09:47:36;2.97;;;2.13;;
40991;SDS011;29633;49.168;9.848;2022-08-20T09:50:03;3.28;;;1.88;;
40991;SDS011;29633;49.168;9.848;2022-08-20T09:52:30;2.08;;;1.88;;
40991;SDS011;29633;49.168;9.848;2022-08-20T09:55:02;4.70;;;1.55;;
40991;SDS011;29633;49.168;9.848;2022-08-20T09:57:42;2.33;;;1.75;;
40991;SDS011;29633;49.168;9.848;2022-08-20T10:00:08;1.92;;;1.73;;
40991;SDS011;29633;49.168;9.848;2022-08-20T10:02:37;2.08;;;1.55;;
40991;SDS011;29633;49.168;9.848;2022-08-20T10:05:04;2.80;;;1.85;;
40991;SDS011;29633;49.168;9.848;2022-08-20T10:07:31;1.58;;;1.48;;
40991;SDS011;29633;49.168;9.848;2022-08-20T10:09:58;1.90;;;1.75;;
40991;SDS011;29633;49.168;9.848;2022-08-20T10:12:25;1.77;;;1.67;;
40991;SDS011;29633;49.168;9.848;2022-08-20T10:14:51;2.35;;;1.40;;
40991;SDS011;29633;49.168;9.848;2022-08-20T10:17:16;3.72;;;1.65;;
40991;SDS011;29633;49.168;9.848;2022-08-20T10:19:42;5.43;;;1.75;;
40991;SDS011;29633;49.168;9.848;2022-08-20T10:22:08;2.22;;;1.80;;
40991;SDS011;29633;49.168;9.848;2022-08-20T10:24:34;1.73;;;1.58;;
40991;SDS011;29633;49.168;9.848;2022-08-20T10:27:00;1.77;;;1.67;;
40991;SDS011;29633;49.168;9.848;2022-08-20T10:29:26;1.90;;;1.80;;
40991;SDS011;29633;49.168;9.848;2022-08-20T10:31:53;3.42;;;2.15;;
40991;SDS011;29633;49.168;9.848;2022-08-20T10:34:21;2.35;;;2.00;;
40991;SDS011;29633;49.168;9.848;2022-08-20T10:36:48;2.20;;;2.00;;
40991;SDS011;29633;49.168;9.848;2022-08-20T10:39:14;2.65;;;2.00;;
40991;SDS011;29633;49.168;9.848;2022-08-20T10:41:40;2.28;;;2.08;;
40991;SDS011;29633;49.168;9.848;2022-08-20T10:44:06;1.73;;;1.60;;
40991;SDS011;29633;49.168;9.848;2022-08-20T10:46:33;1.73;;;1.63;;
40991;SDS011;29633;49.168;9.848;2022-08-20T10:48:59;2.33;;;2.13;;
40991;SDS011;29633;49.168;9.848;2022-08-20T10:51:25;3.20;;;2.38;;
40991;SDS011;29633;49.168;9.848;2022-08-20T10:53:50;2.40;;;2.20;;
40991;SDS011;29633;49.168;9.848;2022-08-20T10:56:16;2.28;;;2.08;;
40991;SDS011;29633;49.168;9.848;2022-08-20T10:58:42;3.30;;;2.38;;
40991;SDS011;29633;49.168;9.848;2022-08-20T11:01:07;2.08;;;1.92;;
40991;SDS011;29633;49.168;9.848;2022-08-20T11:03:34;2.38;;;2.28;;
40991;SDS011;29633;49.168;9.848;2022-08-20T11:06:00;3.22;;;2.65;;
40991;SDS011;29633;49.168;9.848;2022-08-20T11:08:26;2.90;;;2.63;;
40991;SDS011;29633;49.168;9.848;2022-08-20T11:10:52;2.67;;;2.47;;
40991;SDS011;29633;49.168;9.848;2022-08-20T11:13:18;2.65;;;2.45;;
40991;SDS011;29633;49.168;9.848;2022-08-20T11:15:43;2.53;;;2.08;;
40991;SDS011;29633;49.168;9.848;2022-08-20T11:18:09;2.42;;;2.22;;
40991;SDS011;29633;49.168;9.848;2022-08-20T11:20:38;2.50;;;2.30;;
40991;SDS011;29633;49.168;9.848;2022-08-20T11:23:04;2.88;;;2.67;;
40991;SDS011;29633;49.168;9.848;2022-08-20T11:25:30;3.58;;;3.28;;
40991;SDS011;29633;49.168;9.848;2022-08-20T11:27:56;2.97;;;2.78;;
40991;SDS011;29633;49.168;9.848;2022-08-20T11:30:27;4.95;;;3.42;;
40991;SDS011;29633;49.168;9.848;2022-08-20T11:32:59;3.70;;;3.40;;
40991;SDS011;29633;49.168;9.848;2022-08-20T11:35:26;3.80;;;3.50;;
40991;SDS011;29633;49.168;9.848;2022-08-20T11:37:54;4.25;;;3.95;;
40991;SDS011;29633;49.168;9.848;2022-08-20T11:40:22;3.97;;;3.65;;
40991;SDS011;29633;49.168;9.848;2022-08-20T11:42:49;4.25;;;3.85;;
40991;SDS011;29633;49.168;9.848;2022-08-20T11:45:15;3.92;;;3.55;;
40991;SDS011;29633;49.168;9.848;2022-08-20T11:47:41;3.78;;;3.47;;
40991;SDS011;29633;49.168;9.848;2022-08-20T11:52:41;3.83;;;3.40;;
40991;SDS011;29633;49.168;9.848;2022-08-20T11:55:07;3.35;;;3.15;;
40991;SDS011;29633;49.168;9.848;2022-08-20T11:57:35;4.68;;;3.08;;
40991;SDS011;29633;49.168;9.848;2022-08-20T12:00:06;2.38;;;2.17;;
40991;SDS011;29633;49.168;9.848;2022-08-20T12:02:38;1.42;;;1.10;;
40991;SDS011;29633;49.168;9.848;2022-08-20T12:05:05;0.70;;;0.70;;
40991;SDS011;29633;49.168;9.848;2022-08-20T12:07:32;0.70;;;0.50;;
40991;SDS011;29633;49.168;9.848;2022-08-20T12:09:58;0.50;;;0.50;;
40991;SDS011;29633;49.168;9.848;2022-08-20T12:12:24;0.50;;;0.30;;
40991;SDS011;29633;49.168;9.848;2022-08-20T12:14:50;0.30;;;0.30;;
40991;SDS011;29633;49.168;9.848;2022-08-20T12:17:19;0.60;;;0.30;;
40991;SDS011;29633;49.168;9.848;2022-08-20T12:19:50;0.70;;;0.30;;
40991;SDS011;29633;49.168;9.848;2022-08-20T12:22:18;0.60;;;0.45;;
40991;SDS011;29633;49.168;9.848;2022-08-20T12:24:44;0.75;;;0.52;;
40991;SDS011;29633;49.168;9.848;2022-08-20T12:27:20;2.63;;;0.50;;
40991;SDS011;29633;49.168;9.848;2022-08-20T12:29:50;0.45;;;0.45;;
40991;SDS011;29633;49.168;9.848;2022-08-20T12:32:19;1.23;;;0.40;;
40991;SDS011;29633;49.168;9.848;2022-08-20T12:34:46;0.43;;;0.40;;
40991;SDS011;29633;49.168;9.848;2022-08-20T12:37:13;0.45;;;0.30;;
40991;SDS011;29633;49.168;9.848;2022-08-20T12:39:43;1.63;;;0.40;;
40991;SDS011;29633;49.168;9.848;2022-08-20T12:42:12;1.27;;;0.43;;
40991;SDS011;29633;49.168;9.848;2022-08-20T12:44:38;3.97;;;0.35;;
40991;SDS011;29633;49.168;9.848;2022-08-20T12:49:41;1.63;;;0.60;;
40991;SDS011;29633;49.168;9.848;2022-08-20T12:54:39;0.63;;;0.40;;
40991;SDS011;29633;49.168;9.848;2022-08-20T12:57:05;0.63;;;0.50;;
40991;SDS011;29633;49.168;9.848;2022-08-20T12:59:37;1.50;;;0.60;;
40991;SDS011;29633;49.168;9.848;2022-08-20T13:02:02;0.65;;;0.60;;
40991;SDS011;29633;49.168;9.848;2022-08-20T13:04:28;1.50;;;0.55;;
40991;SDS011;29633;49.168;9.848;2022-08-20T13:06:58;0.77;;;0.68;;
40991;SDS011;29633;49.168;9.848;2022-08-20T13:09:26;0.60;;;0.55;;
40991;SDS011;29633;49.168;9.848;2022-08-20T13:11:52;0.77;;;0.70;;
40991;SDS011;29633;49.168;9.848;2022-08-20T13:14:17;2.25;;;0.70;;
40991;SDS011;29633;49.168;9.848;2022-08-20T13:16:43;1.15;;;0.80;;
40991;SDS011;29633;49.168;9.848;2022-08-20T13:19:09;0.95;;;0.88;;
40991;SDS011;29633;49.168;9.848;2022-08-20T13:21:34;0.93;;;0.80;;
40991;SDS011;29633;49.168;9.848;2022-08-20T13:24:00;1.08;;;1.00;;
40991;SDS011;29633;49.168;9.848;2022-08-20T13:26:27;1.50;;;0.90;;
40991;SDS011;29633;49.168;9.848;2022-08-20T13:28:53;1.02;;;0.93;;
40991;SDS011;29633;49.168;9.848;2022-08-20T13:31:18;1.13;;;1.02;;
40991;SDS011;29633;49.168;9.848;2022-08-20T13:33:44;1.73;;;1.30;;
40991;SDS011;29633;49.168;9.848;2022-08-20T13:36:10;1.40;;;1.30;;
40991;SDS011;29633;49.168;9.848;2022-08-20T13:38:36;1.23;;;1.13;;
40991;SDS011;29633;49.168;9.848;2022-08-20T13:41:02;1.27;;;1.17;;
40991;SDS011;29633;49.168;9.848;2022-08-20T13:43:27;2.90;;;1.30;;
40991;SDS011;29633;49.168;9.848;2022-08-20T13:45:53;2.75;;;1.15;;
40991;SDS011;29633;49.168;9.848;2022-08-20T13:48:19;2.03;;;1.20;;
40991;SDS011;29633;49.168;9.848;2022-08-20T13:50:44;1.27;;;1.17;;
40991;SDS011;29633;49.168;9.848;2022-08-20T13:53:10;1.70;;;1.40;;
40991;SDS011;29633;49.168;9.848;2022-08-20T13:55:36;1.50;;;1.40;;
40991;SDS011;29633;49.168;9.848;2022-08-20T13:58:05;2.00;;;1.77;;
40991;SDS011;29633;49.168;9.848;2022-08-20T14:00:32;1.75;;;1.55;;
40991;SDS011;29633;49.168;9.848;2022-08-20T14:02:59;1.60;;;1.50;;
40991;SDS011;29633;49.168;9.848;2022-08-20T14:05:27;1.67;;;1.58;;
40991;SDS011;29633;49.168;9.848;2022-08-20T14:07:54;1.90;;;1.65;;
40991;SDS011;29633;49.168;9.848;2022-08-20T14:10:21;1.75;;;1.63;;
40991;SDS011;29633;49.168;9.848;2022-08-20T14:12:50;1.52;;;1.35;;
40991;SDS011;29633;49.168;9.848;2022-08-20T14:15:18;1.73;;;1.23;;
40991;SDS011;29633;49.168;9.848;2022-08-20T14:17:49;1.83;;;1.40;;
40991;SDS011;29633;49.168;9.848;2022-08-20T14:20:20;1.30;;;1.20;;
40991;SDS011;29633;49.168;9.848;2022-08-20T14:22:49;1.17;;;1.08;;
40991;SDS011;29633;49.168;9.848;2022-08-20T14:25:18;1.10;;;0.93;;
40991;SDS011;29633;49.168;9.848;2022-08-20T14:27:46;1.23;;;1.13;;
40991;SDS011;29633;49.168;9.848;2022-08-20T14:30:13;1.60;;;1.50;;
40991;SDS011;29633;49.168;9.848;2022-08-20T14:32:43;2.42;;;1.65;;
40991;SDS011;29633;49.168;9.848;2022-08-20T14:35:08;1.80;;;1.33;;
40991;SDS011;29633;49.168;9.848;2022-08-20T14:37:39;1.60;;;1.45;;
40991;SDS011;29633;49.168;9.848;2022-08-20T14:40:10;1.60;;;1.30;;
40991;SDS011;29633;49.168;9.848;2022-08-20T14:42:40;1.27;;;1.08;;
40991;SDS011;29633;49.168;9.848;2022-08-20T14:45:07;1.30;;;1.10;;
40991;SDS011;29633;49.168;9.848;2022-08-20T14:47:37;1.95;;;1.17;;
40991;SDS011;29633;49.168;9.848;2022-08-20T14:50:15;1.08;;;0.95;;
40991;SDS011;29633;49.168;9.848;2022-08-20T14:52:47;1.27;;;1.17;;
40991;SDS011;29633;49.168;9.848;2022-08-20T14:55:14;1.13;;;1.02;;
40991;SDS011;29633;49.168;9.848;2022-08-20T14:57:42;1.90;;;1.10;;
40991;SDS011;29633;49.168;9.848;2022-08-20T15:00:10;1.08;;;1.00;;
40991;SDS011;29633;49.168;9.848;2022-08-20T15:02:44;1.25;;;1.15;;
40991;SDS011;29633;49.168;9.848;2022-08-20T15:05:11;1.42;;;1.10;;
40991;SDS011;29633;49.168;9.848;2022-08-20T15:07:39;1.17;;;1.00;;
40991;SDS011;29633;49.168;9.848;2022-08-20T15:10:09;2.83;;;0.90;;
40991;SDS011;29633;49.168;9.848;2022-08-20T15:12:42;1.20;;;1.00;;
40991;SDS011;29633;49.168;9.848;2022-08-20T15:15:09;2.50;;;0.90;;
40991;SDS011;29633;49.168;9.848;2022-08-20T15:17:37;1.08;;;0.98;;
40991;SDS011;29633;49.168;9.848;2022-08-20T15:20:07;1.02;;;0.80;;